Time;durP1;ratioP1;P1;durP2;ratioP2;P2;SDS_P1;SDS_P2;PMS_P1;PMS_P2;Temp;Humidity;BMP_temperature;BMP_pressure;BME280_temperature;BME280_humidity;BME280_pressure;Samples;Min_cycle;Max_cycle;Signal;HPM_P1;HPM_P2
2020/12/15 00:00:53;;;;;;;31.33;19.67;;;8.30;99.90;;;;;;5017111;28;20053;-85
2020/12/15 00:03:19;;;;;;;29.27;19.52;;;8.30;99.90;;;;;;5030171;28;20037;-85
2020/12/15 00:06:04;;;;;;;29.13;19.38;;;8.30;99.90;;;;;;5016300;28;20053;-85
2020/12/15 00:08:50;;;;;;;25.65;19.23;;;8.30;99.90;;;;;;5003622;28;20045;-85
2020/12/15 00:11:17;;;;;;;30.95;19.92;;;8.30;99.90;;;;;;5031122;28;20212;-85
2020/12/15 00:13:46;;;;;;;24.77;17.02;;;8.30;99.90;;;;;;5031619;28;20045;-85
2020/12/15 00:16:17;;;;;;;28.58;18.30;;;8.30;99.90;;;;;;5009047;28;20045;-84
2020/12/15 00:19:03;;;;;;;24.38;17.40;;;8.30;99.90;;;;;;5029543;28;20501;-84
2020/12/15 00:21:29;;;;;;;24.38;16.98;;;8.20;99.90;;;;;;5030713;28;20095;-85
2020/12/15 00:24:15;;;;;;;30.35;17.55;;;8.20;99.90;;;;;;5002386;28;20456;-84
2020/12/15 00:26:41;;;;;;;30.67;19.77;;;8.20;99.90;;;;;;5030224;28;20057;-85
2020/12/15 00:29:26;;;;;;;31.15;17.98;;;8.20;99.90;;;;;;5012978;28;20060;-84
2020/12/15 00:31:52;;;;;;;27.67;19.80;;;8.30;99.90;;;;;;5030212;28;20415;-85
2020/12/15 00:34:18;;;;;;;36.10;20.20;;;8.20;99.90;;;;;;5012809;28;20033;-86
2020/12/15 00:36:44;;;;;;;32.53;20.60;;;8.20;99.90;;;;;;5013963;28;20045;-86
2020/12/15 00:39:09;;;;;;;34.65;21.83;;;8.20;99.90;;;;;;5030659;28;20052;-86
2020/12/15 00:41:35;;;;;;;32.42;21.13;;;8.10;99.90;;;;;;4996712;28;20046;-86
2020/12/15 00:44:21;;;;;;;45.70;26.25;;;8.10;99.90;;;;;;5009072;28;20176;-86
2020/12/15 00:46:50;;;;;;;50.05;25.50;;;8.10;99.90;;;;;;5029949;28;20461;-86
2020/12/15 00:49:17;;;;;;;46.47;27.40;;;8.10;99.90;;;;;;5012962;28;20056;-85
2020/12/15 00:51:45;;;;;;;46.90;27.63;;;8.10;99.90;;;;;;5030861;28;20397;-86
2020/12/15 00:54:31;;;;;;;46.55;27.05;;;8.10;99.90;;;;;;5002752;28;20496;-86
2020/12/15 00:56:57;;;;;;;49.08;26.02;;;8.10;99.90;;;;;;5030764;28;20037;-85
2020/12/15 00:59:23;;;;;;;49.55;26.10;;;8.10;99.90;;;;;;5021632;28;20056;-86
2020/12/15 01:02:09;;;;;;;41.05;26.17;;;8.10;99.90;;;;;;4985954;28;20469;-85
2020/12/15 01:04:34;;;;;;;44.28;25.80;;;8.10;99.90;;;;;;5030784;28;20049;-85
2020/12/15 01:07:00;;;;;;;46.22;29.23;;;8.20;99.90;;;;;;5012541;28;20566;-84
2020/12/15 01:09:27;;;;;;;41.78;25.55;;;8.10;99.90;;;;;;5012005;28;20606;-85
2020/12/15 01:11:52;;;;;;;53.85;28.15;;;8.10;99.90;;;;;;5029622;28;20148;-85
2020/12/15 01:14:18;;;;;;;44.80;23.30;;;8.10;99.90;;;;;;5028702;28;20264;-86
2020/12/15 01:17:08;;;;;;;48.55;24.58;;;8.10;99.90;;;;;;5005701;28;20106;-84
2020/12/15 01:19:34;;;;;;;38.22;23.83;;;8.10;99.90;;;;;;5030107;28;20496;-85
2020/12/15 01:22:00;;;;;;;38.13;23.35;;;8.10;99.90;;;;;;5029126;28;20791;-85
2020/12/15 01:24:26;;;;;;;38.38;22.23;;;8.10;99.90;;;;;;5028739;28;20050;-85
2020/12/15 01:26:52;;;;;;;35.30;23.00;;;8.10;99.90;;;;;;5017273;28;20117;-85
2020/12/15 01:29:38;;;;;;;38.97;22.98;;;8.10;99.90;;;;;;4977878;28;20046;-85
2020/12/15 01:32:04;;;;;;;37.95;23.42;;;8.20;99.90;;;;;;5010151;28;20406;-84
2020/12/15 01:34:30;;;;;;;51.38;26.25;;;8.00;99.90;;;;;;5009221;28;20092;-85
2020/12/15 01:37:16;;;;;;;35.72;22.50;;;8.10;99.90;;;;;;4974385;28;20084;-85
2020/12/15 01:39:42;;;;;;;37.35;20.92;;;8.10;99.90;;;;;;5003888;28;20077;-85
2020/12/15 01:42:27;;;;;;;45.38;23.25;;;8.20;99.90;;;;;;4995193;28;20457;-86
2020/12/15 01:44:53;;;;;;;33.65;18.27;;;8.10;99.90;;;;;;4976655;28;20099;-85
2020/12/15 01:47:19;;;;;;;37.13;20.73;;;8.10;99.90;;;;;;5009128;28;20132;-85
2020/12/15 01:49:45;;;;;;;22.40;14.98;;;8.10;99.90;;;;;;5008945;28;20050;-85
2020/12/15 01:52:14;;;;;;;36.42;22.65;;;8.10;99.90;;;;;;4991376;28;20038;-86
2020/12/15 01:54:43;;;;;;;37.30;20.48;;;8.10;99.90;;;;;;4992940;28;20049;-85
2020/12/15 01:57:10;;;;;;;33.30;21.70;;;8.10;99.90;;;;;;4989349;28;20050;-85
2020/12/15 01:59:55;;;;;;;34.33;21.73;;;8.10;99.90;;;;;;4956908;28;20410;-85
2020/12/15 02:02:41;;;;;;;33.47;22.55;;;8.10;99.90;;;;;;4975747;28;20050;-85
2020/12/15 02:05:08;;;;;;;30.02;21.10;;;8.10;99.90;;;;;;5002261;28;20042;-84
2020/12/15 02:07:36;;;;;;;34.60;21.38;;;8.00;99.90;;;;;;5009293;28;20069;-85
2020/12/15 02:10:04;;;;;;;31.35;19.70;;;8.10;99.90;;;;;;5009982;28;20128;-85
2020/12/15 02:12:30;;;;;;;27.23;20.73;;;8.00;99.90;;;;;;4994142;28;20042;-85
2020/12/15 02:14:56;;;;;;;41.45;23.80;;;8.00;99.90;;;;;;4992468;28;20129;-85
2020/12/15 02:17:41;;;;;;;37.28;22.05;;;8.00;99.90;;;;;;4995232;28;20062;-87
2020/12/15 02:20:09;;;;;;;43.70;24.52;;;8.00;99.90;;;;;;5000706;28;20037;-87
2020/12/15 02:22:35;;;;;;;40.13;23.95;;;7.90;99.90;;;;;;5003748;28;20367;-86
2020/12/15 02:25:21;;;;;;;43.25;23.35;;;7.90;99.90;;;;;;4967565;28;20482;-86
2020/12/15 02:27:46;;;;;;;37.35;22.40;;;7.90;99.90;;;;;;5023666;28;20045;-87
2020/12/15 02:30:12;;;;;;;49.53;25.15;;;7.90;99.90;;;;;;5026858;28;20049;-87
2020/12/15 02:32:58;;;;;;;42.40;23.40;;;7.90;99.90;;;;;;5014306;28;20059;-87
2020/12/15 02:35:24;;;;;;;40.83;23.30;;;7.90;99.90;;;;;;5010576;28;20926;-87
2020/12/15 02:37:49;;;;;;;44.05;23.48;;;7.80;99.90;;;;;;4996337;28;20266;-87
2020/12/15 02:40:15;;;;;;;36.50;22.92;;;7.80;99.90;;;;;;5009889;28;20439;-87
2020/12/15 02:42:41;;;;;;;32.47;20.08;;;7.80;99.90;;;;;;5012889;28;20044;-87
2020/12/15 02:45:07;;;;;;;34.92;22.13;;;7.80;99.90;;;;;;5027465;28;20388;-87
2020/12/15 02:47:32;;;;;;;35.78;21.77;;;7.80;99.90;;;;;;5030509;28;20134;-87
2020/12/15 02:49:58;;;;;;;32.25;19.58;;;7.80;99.90;;;;;;5028764;28;20058;-87
2020/12/15 02:52:24;;;;;;;27.20;19.23;;;7.80;99.90;;;;;;5003482;28;20045;-86
2020/12/15 02:55:10;;;;;;;32.85;19.95;;;7.80;99.90;;;;;;4998198;28;20045;-85
2020/12/15 02:57:56;;;;;;;27.75;17.42;;;7.70;99.90;;;;;;5013988;28;20559;-86
2020/12/15 03:00:22;;;;;;;24.85;16.83;;;7.70;99.90;;;;;;5023051;28;20049;-87
2020/12/15 03:02:48;;;;;;;23.17;15.52;;;7.80;99.90;;;;;;5011263;28;20033;-87
2020/12/15 03:05:15;;;;;;;22.63;14.50;;;7.70;99.90;;;;;;5014004;28;20443;-86
2020/12/15 03:08:01;;;;;;;21.13;12.57;;;7.70;99.90;;;;;;5003753;28;20489;-86
2020/12/15 03:10:27;;;;;;;24.85;11.85;;;7.70;99.90;;;;;;5014790;28;20045;-87
2020/12/15 03:12:53;;;;;;;17.10;10.27;;;7.70;99.90;;;;;;5015149;28;20042;-87
2020/12/15 03:15:38;;;;;;;20.70;13.15;;;7.70;99.90;;;;;;5031969;28;20091;-87
2020/12/15 03:18:04;;;;;;;18.17;13.02;;;7.70;99.90;;;;;;4994619;28;20477;-86
2020/12/15 03:20:52;;;;;;;14.98;11.48;;;7.70;99.90;;;;;;5004730;28;20067;-86
2020/12/15 03:23:38;;;;;;;19.80;11.77;;;7.70;99.90;;;;;;5001450;28;20045;-87
2020/12/15 03:26:04;;;;;;;16.27;12.05;;;7.60;99.90;;;;;;5028340;28;20841;-85
2020/12/15 03:28:50;;;;;;;19.40;12.48;;;7.70;99.90;;;;;;5017973;28;20405;-86
2020/12/15 03:31:16;;;;;;;17.05;11.88;;;7.60;99.90;;;;;;5014531;28;20045;-86
2020/12/15 03:33:42;;;;;;;17.45;11.48;;;7.70;99.90;;;;;;5014860;28;20096;-87
2020/12/15 03:36:28;;;;;;;17.60;11.15;;;7.70;99.90;;;;;;5017009;28;20152;-87
2020/12/15 03:38:54;;;;;;;18.17;11.35;;;7.60;99.90;;;;;;5031332;28;20146;-86
2020/12/15 03:41:20;;;;;;;17.90;11.35;;;7.70;99.90;;;;;;5029598;28;20502;-87
2020/12/15 03:43:46;;;;;;;22.55;10.75;;;7.70;99.90;;;;;;5030673;28;20128;-87
2020/12/15 03:46:32;;;;;;;14.10;10.07;;;7.70;99.90;;;;;;5030247;28;20045;-88
2020/12/15 03:48:57;;;;;;;21.75;11.88;;;7.70;99.90;;;;;;5032166;28;20079;-89
2020/12/15 03:51:43;;;;;;;13.90;11.10;;;7.70;99.90;;;;;;5009632;28;20053;-87
2020/12/15 03:54:09;;;;;;;16.10;11.82;;;7.70;99.90;;;;;;5013104;28;20068;-86
2020/12/15 03:56:35;;;;;;;15.50;11.48;;;7.70;99.90;;;;;;4997039;28;20109;-87
2020/12/15 03:59:01;;;;;;;15.50;11.02;;;7.70;99.90;;;;;;4995557;28;20061;-87
2020/12/15 04:01:27;;;;;;;18.13;12.05;;;7.70;99.90;;;;;;5023134;28;20427;-86
2020/12/15 04:04:13;;;;;;;18.35;12.60;;;7.70;99.90;;;;;;4991126;28;20394;-87
2020/12/15 04:06:38;;;;;;;20.58;13.70;;;7.70;99.90;;;;;;5013639;28;20116;-87
2020/12/15 04:09:25;;;;;;;21.15;12.48;;;7.60;99.90;;;;;;5027008;28;20045;-87
2020/12/15 04:12:12;;;;;;;24.27;14.00;;;7.60;99.90;;;;;;5005368;28;20081;-88
2020/12/15 04:14:57;;;;;;;19.70;13.02;;;7.60;99.90;;;;;;5021811;28;20055;-87
2020/12/15 04:17:23;;;;;;;25.95;15.68;;;7.60;99.90;;;;;;5029791;28;20041;-87
2020/12/15 04:19:49;;;;;;;18.63;14.00;;;7.60;99.90;;;;;;5031532;28;20459;-87
2020/12/15 04:22:15;;;;;;;22.92;14.95;;;7.60;99.90;;;;;;5030319;28;20532;-87
2020/12/15 04:24:41;;;;;;;24.67;16.70;;;7.60;99.90;;;;;;5012935;28;20480;-87
2020/12/15 04:27:07;;;;;;;25.58;15.43;;;7.60;99.90;;;;;;5030792;28;20052;-86
2020/12/15 04:29:53;;;;;;;21.30;15.52;;;7.50;99.90;;;;;;5015987;28;20406;-86
2020/12/15 04:32:19;;;;;;;18.95;14.30;;;7.50;99.90;;;;;;5013030;28;20060;-86
2020/12/15 04:34:44;;;;;;;20.83;14.93;;;7.50;99.90;;;;;;4996874;28;20148;-87
2020/12/15 04:37:10;;;;;;;29.58;17.10;;;7.50;99.90;;;;;;5013435;28;20124;-87
2020/12/15 04:39:36;;;;;;;27.35;19.63;;;7.50;99.90;;;;;;4996250;28;20099;-87
2020/12/15 04:42:02;;;;;;;26.73;17.67;;;7.50;99.90;;;;;;5013600;28;20124;-86
2020/12/15 04:44:29;;;;;;;24.50;17.88;;;7.60;99.90;;;;;;5028912;28;20430;-86
2020/12/15 04:46:58;;;;;;;21.92;16.52;;;7.50;99.90;;;;;;5013140;28;20082;-86
2020/12/15 04:49:28;;;;;;;26.25;16.15;;;7.60;99.90;;;;;;5029091;28;20091;-86
2020/12/15 04:52:21;;;;;;;23.67;15.70;;;7.60;99.90;;;;;;5002661;28;20053;-85
2020/12/15 04:55:07;;;;;;;23.40;16.90;;;7.60;99.90;;;;;;5016193;28;20068;-86
2020/12/15 04:57:37;;;;;;;25.88;17.50;;;7.60;99.90;;;;;;5028714;28;20052;-85
2020/12/15 05:00:08;;;;;;;24.58;17.65;;;7.70;99.90;;;;;;5012660;28;20045;-86
2020/12/15 05:02:44;;;;;;;24.95;18.52;;;7.60;99.90;;;;;;5012204;28;20459;-86
2020/12/15 05:05:10;;;;;;;23.63;18.80;;;7.60;99.90;;;;;;5030553;28;20049;-86
2020/12/15 05:07:43;;;;;;;26.55;19.50;;;7.70;99.90;;;;;;5028898;28;20469;-86
2020/12/15 05:10:13;;;;;;;31.60;21.33;;;7.70;99.90;;;;;;5012740;28;20065;-86
2020/12/15 05:12:59;;;;;;;31.02;22.30;;;7.70;99.90;;;;;;5001785;28;20504;-87
2020/12/15 05:15:25;;;;;;;30.75;22.27;;;7.60;99.90;;;;;;5028701;28;20053;-86
2020/12/15 05:17:50;;;;;;;31.38;22.15;;;7.60;99.90;;;;;;5028819;28;20045;-87
2020/12/15 05:20:31;;;;;;;32.13;22.83;;;7.70;99.90;;;;;;5030243;28;20152;-87
2020/12/15 05:23:20;;;;;;;;;;;7.60;99.90;;;;;;5016028;28;20049;-87
2020/12/15 05:25:46;;;;;;;34.72;25.45;;;7.60;99.90;;;;;;5011994;28;20407;-86
2020/12/15 05:28:14;;;;;;;38.17;26.92;;;7.60;99.90;;;;;;5025253;28;20076;-87
2020/12/15 05:30:40;;;;;;;40.53;28.38;;;7.60;99.90;;;;;;5029553;28;20068;-87
2020/12/15 05:33:16;;;;;;;42.08;28.00;;;7.60;99.90;;;;;;5012400;28;20033;-87
2020/12/15 05:35:43;;;;;;;38.20;27.48;;;7.60;99.90;;;;;;5011678;28;20056;-87
2020/12/15 05:38:09;;;;;;;40.03;26.98;;;7.60;99.90;;;;;;5028297;28;20045;-87
2020/12/15 05:40:55;;;;;;;40.97;26.90;;;7.60;99.90;;;;;;5015628;28;20736;-87
2020/12/15 05:43:27;;;;;;;46.42;28.95;;;7.70;99.90;;;;;;5028383;28;20098;-85
2020/12/15 05:45:53;;;;;;;39.13;26.85;;;7.70;99.90;;;;;;5029862;28;20048;-86
2020/12/15 05:48:25;;;;;;;42.65;28.45;;;7.60;99.90;;;;;;5029461;28;20116;-86
2020/12/15 05:51:11;;;;;;;43.75;28.13;;;7.70;99.90;;;;;;5001786;28;20073;-86
2020/12/15 05:53:37;;;;;;;46.42;31.25;;;7.70;99.90;;;;;;5012072;28;20068;-86
2020/12/15 05:56:23;;;;;;;43.13;28.20;;;7.70;99.90;;;;;;5015451;28;20482;-87
2020/12/15 05:58:53;;;;;;;41.50;28.48;;;7.70;99.90;;;;;;5026961;28;20465;-86
2020/12/15 06:01:19;;;;;;;46.03;29.60;;;7.70;99.90;;;;;;5028247;28;20485;-86
2020/12/15 06:03:56;;;;;;;54.58;31.90;;;7.70;99.90;;;;;;5027985;28;20061;-85
2020/12/15 06:06:29;;;;;;;47.20;30.60;;;7.70;99.90;;;;;;5011963;28;20076;-87
2020/12/15 06:09:16;;;;;;;46.72;30.42;;;7.70;99.90;;;;;;5014969;28;20402;-86
2020/12/15 06:11:44;;;;;;;48.40;29.45;;;7.70;99.90;;;;;;5029049;28;20045;-86
2020/12/15 06:14:11;;;;;;;50.88;31.15;;;7.70;99.90;;;;;;5029170;28;20037;-86
2020/12/15 06:16:38;;;;;;;49.50;30.48;;;7.70;99.90;;;;;;5028920;28;20122;-86
2020/12/15 06:19:12;;;;;;;48.88;30.00;;;7.70;99.90;;;;;;5029246;28;20070;-86
2020/12/15 06:21:59;;;;;;;41.00;27.85;;;7.70;99.90;;;;;;5014719;28;20415;-86
2020/12/15 06:24:30;;;;;;;45.47;27.55;;;7.80;99.90;;;;;;5029321;28;20073;-86
2020/12/15 06:26:59;;;;;;;43.03;28.90;;;7.70;99.90;;;;;;5029489;28;20056;-87
2020/12/15 06:29:45;;;;;;;44.05;29.05;;;7.70;99.90;;;;;;5013331;28;20052;-87
2020/12/15 06:32:18;;;;;;;48.45;30.45;;;7.80;99.90;;;;;;5027822;28;20041;-86
2020/12/15 06:34:49;;;;;;;53.50;30.20;;;7.80;99.90;;;;;;5027136;28;20037;-87
2020/12/15 06:37:17;;;;;;;47.38;28.73;;;7.70;99.90;;;;;;5029484;28;20069;-86
2020/12/15 06:39:53;;;;;;;43.95;29.38;;;7.70;99.90;;;;;;5009652;28;20136;-87
2020/12/15 06:42:48;;;;;;;46.75;30.05;;;7.70;99.90;;;;;;5022895;28;20415;-87
2020/12/15 06:45:34;;;;;;;42.90;28.05;;;7.70;99.90;;;;;;5002477;28;20099;-86
2020/12/15 06:48:05;;;;;;;57.17;33.80;;;7.70;99.90;;;;;;5011483;28;20042;-84
2020/12/15 06:50:51;;;;;;;59.90;33.25;;;7.70;99.90;;;;;;5008195;28;20037;-86
2020/12/15 06:53:36;;;;;;;48.90;30.33;;;7.70;99.90;;;;;;4998457;28;20065;-86
2020/12/15 06:56:04;;;;;;;46.03;30.42;;;7.70;99.90;;;;;;5027882;28;20060;-87
2020/12/15 06:58:31;;;;;;;44.83;29.70;;;7.70;99.90;;;;;;5027045;28;20053;-85
2020/12/15 07:01:21;;;;;;;42.05;28.20;;;7.70;99.90;;;;;;5000306;28;20052;-86
2020/12/15 07:04:07;;;;;;;44.95;30.27;;;7.70;99.90;;;;;;5010249;28;20050;-87
2020/12/15 07:06:33;;;;;;;42.22;28.52;;;7.80;99.90;;;;;;4992183;28;20059;-85
2020/12/15 07:09:09;;;;;;;53.65;31.50;;;7.80;99.90;;;;;;5010298;28;20183;-86
2020/12/15 07:11:35;;;;;;;53.17;30.30;;;7.80;99.90;;;;;;5026212;28;20065;-86
2020/12/15 07:14:03;;;;;;;58.15;32.15;;;7.80;99.90;;;;;;5020429;28;20103;-86
2020/12/15 07:16:30;;;;;;;44.33;29.27;;;7.80;99.90;;;;;;5010400;28;20052;-87
2020/12/15 07:19:17;;;;;;;58.15;32.40;;;7.80;99.90;;;;;;5009349;28;20386;-87
2020/12/15 07:22:06;;;;;;;53.78;29.80;;;7.90;99.90;;;;;;5013423;28;20115;-87
2020/12/15 07:24:32;;;;;;;52.47;29.65;;;7.80;99.90;;;;;;5010230;28;20041;-85
2020/12/15 07:27:02;;;;;;;47.63;28.42;;;7.80;99.90;;;;;;5009722;28;20063;-86
2020/12/15 07:29:28;;;;;;;35.58;25.77;;;7.90;99.90;;;;;;4990117;28;20099;-86
2020/12/15 07:32:18;;;;;;;44.97;28.42;;;7.90;99.90;;;;;;5013156;28;20416;-86
2020/12/15 07:34:43;;;;;;;39.37;27.73;;;7.90;99.90;;;;;;5025947;28;20072;-86
2020/12/15 07:37:29;;;;;;;48.40;29.23;;;7.90;99.90;;;;;;4997449;28;20136;-86
2020/12/15 07:40:01;;;;;;;52.25;30.27;;;8.00;99.90;;;;;;5009597;28;20112;-88
2020/12/15 07:42:27;;;;;;;42.55;27.85;;;8.00;99.90;;;;;;5027698;28;20458;-87
2020/12/15 07:45:12;;;;;;;44.35;27.92;;;7.90;99.90;;;;;;5000160;28;20087;-86
2020/12/15 07:47:58;;;;;;;40.53;28.42;;;8.00;99.90;;;;;;4997822;28;20136;-86
2020/12/15 07:50:29;;;;;;;50.47;28.83;;;8.00;99.90;;;;;;5008239;28;20045;-87
2020/12/15 07:53:05;;;;;;;49.90;29.77;;;8.00;99.90;;;;;;5030499;28;20044;-86
2020/12/15 07:55:51;;;;;;;47.33;28.83;;;8.00;99.90;;;;;;5014041;28;20053;-87
2020/12/15 07:58:17;;;;;;;57.13;31.17;;;8.00;99.90;;;;;;5031403;28;20041;-87
2020/12/15 08:00:43;;;;;;;49.03;30.55;;;8.00;99.90;;;;;;5013664;28;20659;-86
2020/12/15 08:03:10;;;;;;;47.53;28.75;;;8.00;99.90;;;;;;5009185;28;20044;-87
2020/12/15 08:06:07;;;;;;;48.40;27.80;;;8.10;99.90;;;;;;5014712;28;20638;-86
2020/12/15 08:08:53;;;;;;;54.60;29.13;;;8.10;99.90;;;;;;5013198;28;20148;-85
2020/12/15 08:11:46;;;;;;;48.40;30.42;;;8.10;99.90;;;;;;5014133;28;20045;-85
2020/12/15 08:14:32;;;;;;;53.45;29.60;;;8.10;99.90;;;;;;5016473;28;20492;-87
2020/12/15 08:17:13;;;;;;;63.33;32.67;;;8.10;99.90;;;;;;5012781;28;20045;-88
2020/12/15 08:19:40;;;;;;;49.05;29.38;;;8.10;99.90;;;;;;5029185;28;20408;-86
2020/12/15 08:22:06;;;;;;;62.15;32.42;;;8.10;99.90;;;;;;5027687;28;20112;-87
2020/12/15 08:24:36;;;;;;;60.97;32.22;;;8.10;99.90;;;;;;5028784;28;20112;-86
2020/12/15 08:27:02;;;;;;;51.55;29.88;;;8.10;99.90;;;;;;5029640;28;20073;-87
2020/12/15 08:29:28;;;;;;;56.50;30.38;;;8.10;99.90;;;;;;5013158;28;20041;-86
2020/12/15 08:32:28;;;;;;;53.55;30.15;;;8.20;99.90;;;;;;5014579;28;20096;-87
2020/12/15 08:35:01;;;;;;;51.97;29.67;;;8.20;99.90;;;;;;5029167;28;20484;-86
2020/12/15 08:37:28;;;;;;;54.50;29.13;;;8.20;99.90;;;;;;5028456;28;20708;-86
2020/12/15 08:40:14;;;;;;;54.95;29.77;;;8.20;99.90;;;;;;5023131;28;20057;-86
2020/12/15 08:42:42;;;;;;;58.75;28.88;;;8.20;99.90;;;;;;5011927;28;20401;-84
2020/12/15 08:45:13;;;;;;;53.78;29.40;;;8.30;99.90;;;;;;5029646;28;20483;-87
2020/12/15 08:47:58;;;;;;;56.40;28.30;;;8.30;99.90;;;;;;5030608;28;20405;-84
2020/12/15 08:50:26;;;;;;;49.90;28.90;;;8.30;99.90;;;;;;5009899;28;20045;-87
2020/12/15 08:53:13;;;;;;;61.22;31.05;;;8.30;99.90;;;;;;4996926;28;20045;-86
2020/12/15 08:55:39;;;;;;;45.35;26.80;;;8.30;99.90;;;;;;4993999;28;20555;-85
2020/12/15 08:58:09;;;;;;;50.33;27.77;;;8.30;99.90;;;;;;5025171;28;20500;-86
2020/12/15 09:00:55;;;;;;;53.40;27.98;;;8.30;99.90;;;;;;4995918;28;20049;-86
2020/12/15 09:03:47;;;;;;;55.08;27.02;;;8.30;99.90;;;;;;4998626;28;20056;-84
2020/12/15 09:06:13;;;;;;;53.58;26.77;;;8.40;99.90;;;;;;5011623;28;20511;-85
2020/12/15 09:08:49;;;;;;;52.05;25.67;;;8.40;99.90;;;;;;5027385;28;20061;-85
2020/12/15 09:11:35;;;;;;;42.03;23.75;;;8.40;99.90;;;;;;5007067;28;20053;-87
2020/12/15 09:14:04;;;;;;;38.17;21.33;;;8.40;99.90;;;;;;5029190;28;20637;-84
2020/12/15 09:16:39;;;;;;;37.28;21.40;;;8.40;99.90;;;;;;5027932;28;20474;-86
2020/12/15 09:19:28;;;;;;;35.03;20.83;;;8.40;99.90;;;;;;5026840;28;20041;-85
2020/12/15 09:22:07;;;;;;;46.50;24.63;;;8.40;99.90;;;;;;5031105;28;20104;-95
2020/12/15 09:24:53;;;;;;;36.17;22.77;;;8.60;99.90;;;;;;5004948;28;20413;-90
2020/12/15 09:28:01;;;;;;;31.48;20.88;;;8.60;99.90;;;;;;5001630;28;20049;-93
2020/12/15 09:30:48;;;;;;;36.65;22.80;;;8.70;99.90;;;;;;4994163;28;20107;-93
2020/12/15 09:36:34;;;;;;;28.98;18.45;;;8.80;99.90;;;;;;4864156;28;219881;-91
2020/12/15 09:39:04;;;;;;;29.27;17.48;;;8.90;99.90;;;;;;4876694;28;20057;-90
2020/12/15 09:41:35;;;;;;;25.55;16.42;;;8.90;99.90;;;;;;4979030;28;20054;-90
2020/12/15 09:44:21;;;;;;;23.20;15.48;;;8.90;99.90;;;;;;4975731;28;20383;-92
2020/12/15 09:46:51;;;;;;;25.13;15.40;;;8.90;99.90;;;;;;4914218;28;20045;-90
2020/12/15 09:49:19;;;;;;;19.60;14.60;;;8.90;99.90;;;;;;4994237;28;20053;-89
2020/12/15 09:51:45;;;;;;;25.55;14.45;;;8.90;99.90;;;;;;4981698;28;20164;-90
2020/12/15 09:54:13;;;;;;;23.02;14.13;;;8.90;99.90;;;;;;4982270;28;20852;-89
2020/12/15 09:56:59;;;;;;;23.08;13.95;;;8.90;99.90;;;;;;4981592;28;20045;-90
2020/12/15 09:59:25;;;;;;;26.73;13.90;;;8.90;99.90;;;;;;4993897;28;20047;-90
2020/12/15 10:02:11;;;;;;;21.92;13.70;;;8.90;99.90;;;;;;4974399;28;20033;-87
2020/12/15 10:04:38;;;;;;;23.30;14.25;;;9.00;99.90;;;;;;4980538;28;20057;-90
2020/12/15 10:07:04;;;;;;;27.17;14.60;;;9.00;99.90;;;;;;4992573;28;20050;-90
2020/12/15 10:09:30;;;;;;;21.50;13.35;;;9.00;99.90;;;;;;4993450;28;20046;-89
2020/12/15 10:11:56;;;;;;;22.55;14.38;;;9.00;99.90;;;;;;4976740;28;20105;-89
2020/12/15 10:14:42;;;;;;;19.30;13.40;;;9.00;99.90;;;;;;4982665;28;20054;-89
2020/12/15 10:17:08;;;;;;;20.30;13.15;;;9.00;99.90;;;;;;4971288;28;20042;-90
2020/12/15 10:19:34;;;;;;;18.23;11.32;;;9.00;99.90;;;;;;4974820;28;20109;-90
2020/12/15 10:22:21;;;;;;;22.13;13.05;;;9.10;99.90;;;;;;4986702;28;20074;-86
2020/12/15 10:25:07;;;;;;;23.13;13.90;;;9.10;99.90;;;;;;4969029;28;20170;-86
2020/12/15 10:27:33;;;;;;;20.95;12.98;;;9.10;99.90;;;;;;5013112;28;20144;-87
2020/12/15 10:30:18;;;;;;;24.80;14.10;;;9.20;99.90;;;;;;4993270;28;20050;-88
2020/12/15 10:32:44;;;;;;;25.38;14.38;;;9.20;99.90;;;;;;5008515;28;20053;-88
2020/12/15 10:35:10;;;;;;;22.83;13.70;;;9.20;99.90;;;;;;4991579;28;20482;-91
2020/12/15 10:37:36;;;;;;;20.48;13.40;;;9.20;99.90;;;;;;4986401;28;20088;-87
2020/12/15 10:40:03;;;;;;;24.70;13.43;;;9.20;99.90;;;;;;5023280;28;20069;-87
2020/12/15 10:42:29;;;;;;;23.30;13.43;;;9.30;99.90;;;;;;5007726;28;20052;-89
2020/12/15 10:44:55;;;;;;;25.27;14.05;;;9.20;99.90;;;;;;5021885;28;20042;-89
2020/12/15 10:47:43;;;;;;;27.88;14.00;;;9.30;99.90;;;;;;5005149;28;20128;-89
2020/12/15 10:50:31;;;;;;;23.40;14.07;;;9.30;99.90;;;;;;4979217;28;20588;-91
2020/12/15 10:52:57;;;;;;;30.02;15.23;;;9.30;99.90;;;;;;5029199;28;20113;-91
2020/12/15 10:55:43;;;;;;;25.67;13.77;;;9.30;99.90;;;;;;4992149;28;20076;-90
2020/12/15 10:58:09;;;;;;;28.88;16.00;;;9.30;99.90;;;;;;5008638;28;20157;-93
2020/12/15 11:00:35;;;;;;;27.58;15.27;;;9.30;99.90;;;;;;4996103;28;20054;-91
2020/12/15 11:03:01;;;;;;;29.27;16.60;;;9.30;99.90;;;;;;5008853;28;20033;-91
2020/12/15 11:05:28;;;;;;;25.02;15.55;;;9.30;99.90;;;;;;4992400;28;20153;-91
2020/12/15 11:07:54;;;;;;;32.00;16.88;;;9.30;99.90;;;;;;4990749;28;20498;-94
2020/12/15 11:10:20;;;;;;;36.63;16.85;;;9.30;99.90;;;;;;4978388;28;20053;-90
2020/12/15 11:12:49;;;;;;;34.92;17.63;;;9.20;99.90;;;;;;5007874;28;20073;-89
2020/12/15 11:15:15;;;;;;;37.72;18.60;;;9.30;99.90;;;;;;5001639;28;20041;-90
2020/12/15 11:17:41;;;;;;;42.03;20.75;;;9.30;99.90;;;;;;4997126;28;20050;-91
2020/12/15 11:20:07;;;;;;;40.40;19.55;;;9.30;99.90;;;;;;5013028;28;20034;-90
2020/12/15 11:22:33;;;;;;;41.15;19.92;;;9.20;99.90;;;;;;4988968;28;20046;-90
2020/12/15 11:25:00;;;;;;;40.30;20.45;;;9.30;99.90;;;;;;4978425;28;20069;-88
2020/12/15 11:27:27;;;;;;;42.50;20.60;;;9.20;99.90;;;;;;4977995;28;20116;-89
2020/12/15 11:29:53;;;;;;;39.58;19.45;;;9.20;99.90;;;;;;4997628;28;20540;-93
2020/12/15 11:32:39;;;;;;;45.90;21.77;;;9.20;99.90;;;;;;4985733;28;20453;-92
2020/12/15 11:35:05;;;;;;;44.72;22.67;;;9.20;99.90;;;;;;4997282;28;20049;-93
2020/12/15 11:37:31;;;;;;;40.78;20.85;;;9.20;99.90;;;;;;4996635;28;20060;-90
2020/12/15 11:39:57;;;;;;;40.40;22.23;;;9.30;99.90;;;;;;4980689;28;20065;-88
2020/12/15 11:42:43;;;;;;;39.55;20.13;;;9.30;99.90;;;;;;4979709;28;20115;-87
2020/12/15 11:45:09;;;;;;;44.90;22.15;;;9.30;99.90;;;;;;4971280;28;20490;-89
2020/12/15 11:48:00;;;;;;;46.38;21.88;;;9.30;99.90;;;;;;4984560;28;20054;-89
2020/12/15 11:50:29;;;;;;;38.72;21.10;;;9.40;99.90;;;;;;4989284;28;20445;-88
2020/12/15 11:53:14;;;;;;;43.20;21.35;;;9.40;99.90;;;;;;4993647;28;20273;-87
2020/12/15 11:55:43;;;;;;;35.28;19.25;;;9.30;99.90;;;;;;4995471;28;20467;-88
2020/12/15 11:58:08;;;;;;;39.80;20.38;;;9.30;99.90;;;;;;5010698;28;20048;-87
2020/12/15 12:00:34;;;;;;;46.08;21.33;;;9.30;99.90;;;;;;4988986;28;20052;-88
2020/12/15 12:03:22;;;;;;;43.60;20.52;;;9.20;99.90;;;;;;4982708;28;20075;-87
2020/12/15 12:06:12;;;;;;;41.70;20.95;;;9.30;99.90;;;;;;4967683;28;20046;-87
2020/12/15 12:08:37;;;;;;;44.88;21.35;;;9.30;99.90;;;;;;4976189;28;20481;-85
2020/12/15 12:11:16;;;;;;;41.50;21.50;;;9.30;99.90;;;;;;4993812;28;20045;-90
2020/12/15 12:13:45;;;;;;;44.70;21.73;;;9.30;99.90;;;;;;4960477;28;20054;-89
2020/12/15 12:16:31;;;;;;;43.15;21.17;;;9.30;99.90;;;;;;5009552;28;20053;-90
2020/12/15 12:18:57;;;;;;;45.13;21.35;;;9.30;99.90;;;;;;4976332;28;20490;-88
2020/12/15 12:21:23;;;;;;;45.05;20.15;;;9.30;99.90;;;;;;4976699;28;20045;-89
2020/12/15 12:24:09;;;;;;;37.22;19.33;;;9.30;99.90;;;;;;4977843;28;20038;-88
2020/12/15 12:26:34;;;;;;;37.15;19.08;;;9.30;99.90;;;;;;5011689;28;20046;-88
2020/12/15 12:29:00;;;;;;;42.78;19.75;;;9.30;99.90;;;;;;4996472;28;20053;-90
2020/12/15 12:31:50;;;;;;;35.80;19.75;;;9.30;99.90;;;;;;5016350;28;20056;-88
2020/12/15 12:34:18;;;;;;;49.85;22.35;;;9.30;99.90;;;;;;5030045;28;20042;-88
2020/12/15 12:36:44;;;;;;;37.70;20.10;;;9.30;99.90;;;;;;5012380;28;20208;-88
2020/12/15 12:39:11;;;;;;;50.33;22.00;;;9.30;99.90;;;;;;5029492;28;20049;-89
2020/12/15 12:41:37;;;;;;;46.33;21.40;;;9.20;99.90;;;;;;5013342;28;20417;-88
2020/12/15 12:44:03;;;;;;;39.88;20.45;;;9.20;99.90;;;;;;5000168;28;20397;-88
2020/12/15 12:46:29;;;;;;;38.92;21.20;;;9.20;99.90;;;;;;5031012;28;20052;-86
2020/12/15 12:49:06;;;;;;;45.33;21.70;;;9.20;99.90;;;;;;5031042;28;20045;-88
2020/12/15 12:51:32;;;;;;;46.63;21.55;;;9.20;99.90;;;;;;5033801;28;20044;-87
2020/12/15 12:54:18;;;;;;;40.67;19.77;;;9.20;99.90;;;;;;5003485;28;20053;-88
2020/12/15 12:56:44;;;;;;;41.95;20.88;;;9.30;99.90;;;;;;5031920;28;20063;-87
2020/12/15 12:59:10;;;;;;;42.88;20.88;;;9.20;99.90;;;;;;5013541;28;20064;-88
2020/12/15 13:02:05;;;;;;;37.45;21.42;;;9.30;99.90;;;;;;5013560;28;20408;-87
2020/12/15 13:04:31;;;;;;;41.70;20.10;;;9.20;99.90;;;;;;5005154;28;20042;-88
2020/12/15 13:06:58;;;;;;;34.85;20.40;;;9.20;99.90;;;;;;4997374;28;20429;-89
2020/12/15 13:09:28;;;;;;;34.78;20.33;;;9.20;99.90;;;;;;5012683;28;20103;-87
2020/12/15 13:11:54;;;;;;;34.65;19.00;;;9.20;99.90;;;;;;5029859;28;20465;-89